createdAt,value
2022-11-27T15:51:12.553Z,3.60
2022-11-27T15:53:40.654Z,6.57
2022-11-27T15:56:09.296Z,8.60
2022-11-27T15:58:37.286Z,8.48
2022-11-27T16:01:06.996Z,7.68
2022-11-27T16:03:35.168Z,7.47
2022-11-27T16:06:05.242Z,5.40
2022-11-27T16:08:34.752Z,7.80
2022-11-27T16:11:04.153Z,8.38
2022-11-27T16:13:32.834Z,9.02
2022-11-27T16:16:05.626Z,4.00
2022-11-27T16:18:34.859Z,4.25
2022-11-27T16:21:07.815Z,5.47
2022-11-27T16:23:38.204Z,3.90
2022-11-27T16:26:07.003Z,4.47
2022-11-27T16:28:35.461Z,3.80
2022-11-27T16:31:07.707Z,4.00
2022-11-27T16:33:36.238Z,7.15
2022-11-27T16:36:09.919Z,3.72
2022-11-27T16:38:40.082Z,3.90
2022-11-27T16:41:10.787Z,4.38
2022-11-27T16:43:41.282Z,5.57
2022-11-27T16:46:11.773Z,5.53
2022-11-27T16:48:41.779Z,5.68
2022-11-27T16:51:13.060Z,4.35
2022-11-27T16:53:44.162Z,4.53
2022-11-27T16:56:15.112Z,4.30
2022-11-27T16:58:45.867Z,4.95
2022-11-27T17:01:19.578Z,4.68
2022-11-27T17:03:48.319Z,3.95
2022-11-27T17:06:18.573Z,3.30
2022-11-27T17:08:47.981Z,3.08
2022-11-27T17:11:20.240Z,4.00
2022-11-27T17:13:49.521Z,3.58
2022-11-27T17:16:17.766Z,4.82
2022-11-27T17:18:48.503Z,4.32
2022-11-27T17:21:21.287Z,4.78
2022-11-27T17:23:51.775Z,4.07
2022-11-27T17:26:21.859Z,4.60
2022-11-27T17:28:49.809Z,4.13
2022-11-27T17:31:19.994Z,3.78
2022-11-27T17:33:49.323Z,3.60
2022-11-27T17:36:17.612Z,4.22
2022-11-27T17:38:45.827Z,4.82
2022-11-27T17:41:16.035Z,4.43
2022-11-27T17:43:46.036Z,3.90
2022-11-27T17:46:18.651Z,4.05
2022-11-27T17:51:15.267Z,4.50
2022-11-27T17:53:43.690Z,3.67
2022-11-27T17:56:13.739Z,4.00
2022-11-27T17:58:43.967Z,3.92
2022-11-27T18:01:17.687Z,3.70
2022-11-27T18:03:52.765Z,3.58
2022-11-27T18:06:22.695Z,3.78
2022-11-27T18:08:51.152Z,3.53
2022-11-27T18:11:22.128Z,4.13
2022-11-27T18:13:57.796Z,4.05
2022-11-27T18:16:29.303Z,4.68
2022-11-27T18:18:58.511Z,4.28
2022-11-27T18:21:28.631Z,4.07
2022-11-27T18:24:22.577Z,4.00
2022-11-27T18:29:39.500Z,3.90
2022-11-27T18:32:08.221Z,3.75
2022-11-27T18:34:40.760Z,4.43
2022-11-27T18:37:09.147Z,4.47
2022-11-27T18:39:38.139Z,3.55
2022-11-27T18:42:06.963Z,4.25
2022-11-27T18:44:39.628Z,3.90
2022-11-27T18:47:13.343Z,3.55
2022-11-27T18:49:46.173Z,3.45
2022-11-27T18:52:14.619Z,4.05
2022-11-27T18:54:43.001Z,3.42
2022-11-27T18:57:11.440Z,3.42
2022-11-27T18:59:40.920Z,4.25
2022-11-27T19:02:10.941Z,3.58
2022-11-27T19:04:43.110Z,4.28
2022-11-27T19:07:12.704Z,4.28
2022-11-27T19:09:41.544Z,4.25
2022-11-27T19:12:10.307Z,4.40
2022-11-27T19:14:39.352Z,4.20
2022-11-27T19:17:07.744Z,5.97
2022-11-27T19:22:30.215Z,5.50
2022-11-27T19:24:58.525Z,4.40
2022-11-27T19:27:26.655Z,4.35
2022-11-27T19:29:54.902Z,4.57
2022-11-27T19:32:24.148Z,4.80
2022-11-27T19:34:52.737Z,4.57
2022-11-27T19:37:33.554Z,4.13
2022-11-27T19:40:06.576Z,4.45
2022-11-27T19:42:34.724Z,3.75
2022-11-27T19:45:03.174Z,4.30
2022-11-27T19:47:31.275Z,4.38
2022-11-27T19:49:59.628Z,4.70
2022-11-27T19:52:30.699Z,4.05
2022-11-27T19:54:58.842Z,4.80
2022-11-27T19:57:28.415Z,4.80
2022-11-27T19:59:56.587Z,6.90
2022-11-27T20:02:24.935Z,9.57
2022-11-27T20:04:54.642Z,6.93
2022-11-27T20:07:23.264Z,11.48
2022-11-27T20:09:52.214Z,9.02
2022-11-27T20:12:21.562Z,8.32
2022-11-27T20:14:51.102Z,5.50
2022-11-27T20:17:19.654Z,12.48
2022-11-27T20:19:47.666Z,10.65
2022-11-27T20:22:15.676Z,6.25
2022-11-27T20:25:04.015Z,7.03
2022-11-27T20:27:31.989Z,9.38
2022-11-27T20:30:01.743Z,4.95
2022-11-27T20:32:30.083Z,4.72
2022-11-27T20:34:59.012Z,5.70
2022-11-27T20:37:28.327Z,6.70
2022-11-27T20:39:56.397Z,7.20
2022-11-27T20:42:24.545Z,6.05
2022-11-27T20:44:53.959Z,5.20
2022-11-27T20:47:23.530Z,4.97
2022-11-27T20:49:51.633Z,4.75
2022-11-27T20:52:19.789Z,4.97
2022-11-27T20:54:48.683Z,5.20
2022-11-27T20:57:16.765Z,5.53
2022-11-27T20:59:45.725Z,5.00
2022-11-27T21:02:14.514Z,4.70
2022-11-27T21:04:45.015Z,5.05
2022-11-27T21:07:15.073Z,4.90
2022-11-27T21:09:43.693Z,4.60
2022-11-27T21:12:13.672Z,5.03
2022-11-27T21:14:41.782Z,4.53
2022-11-27T21:17:10.323Z,4.55
2022-11-27T21:19:38.719Z,5.60
2022-11-27T21:22:08.281Z,5.13
2022-11-27T21:24:36.613Z,4.75
2022-11-27T21:27:04.643Z,5.55
2022-11-27T21:29:33.057Z,5.55
2022-11-27T21:32:01.381Z,5.10
2022-11-27T21:34:30.430Z,5.07
2022-11-27T21:36:58.684Z,4.93
2022-11-27T21:39:28.306Z,5.68
2022-11-27T21:41:57.330Z,7.40
2022-11-27T21:44:26.045Z,6.32
2022-11-27T21:46:54.301Z,10.18
2022-11-27T21:49:22.813Z,8.07
2022-11-27T21:51:53.358Z,5.95
2022-11-27T21:54:24.906Z,5.90
2022-11-27T21:56:54.490Z,5.03
2022-11-27T21:59:22.698Z,4.97
2022-11-27T22:01:51.029Z,4.82
2022-11-27T22:04:19.445Z,5.00
2022-11-27T22:06:48.234Z,4.72
2022-11-27T22:09:16.645Z,5.43
2022-11-27T22:11:46.264Z,4.90
2022-11-27T22:14:17.445Z,5.22
2022-11-27T22:16:47.105Z,5.47
2022-11-27T22:19:17.072Z,4.80
2022-11-27T22:21:45.889Z,4.57
2022-11-27T22:24:19.459Z,4.55
2022-11-27T22:26:51.961Z,4.97
2022-11-27T22:29:21.749Z,4.68
2022-11-27T22:31:49.620Z,5.15
2022-11-27T22:34:18.128Z,4.97
2022-11-27T22:36:47.710Z,4.90
2022-11-27T22:39:15.811Z,4.95
2022-11-27T22:41:45.461Z,4.80
2022-11-27T22:44:18.081Z,5.60
2022-11-27T22:46:48.128Z,5.30
2022-11-27T22:49:19.036Z,4.57
2022-11-27T22:51:48.535Z,6.47
2022-11-27T22:54:17.964Z,4.85
2022-11-27T22:56:47.302Z,4.85
2022-11-27T22:59:34.091Z,4.75
